PKWA TAF

82.6 °F / 28.1 °C
ENE at 14 MPH
75%
73.9°F / 23.3 °C
29.9" (1012 mb)
10 mile(s)
clear
2021.04.20 2200 UTC

PKWA TAF

2021/04/20 18:24
TAF PKWA 201720Z 2018/2118 06011KT P6SM VCSH FEW018 SCT050 OVC120